sensor_id;sensor_type;location;lat;lon;timestamp;temperature;humidity
65460;DHT22;52058;49.822;6.754;2023-03-12T00:01:25;-0.26;92.23
65460;DHT22;52058;49.822;6.754;2023-03-12T00:03:54;-0.20;92.15
65460;DHT22;52058;49.822;6.754;2023-03-12T00:06:20;-0.19;91.79
65460;DHT22;52058;49.822;6.754;2023-03-12T00:08:48;-0.15;91.76
65460;DHT22;52058;49.822;6.754;2023-03-12T00:11:17;-0.15;91.84
65460;DHT22;52058;49.822;6.754;2023-03-12T00:13:48;-0.17;92.04
65460;DHT22;52058;49.822;6.754;2023-03-12T00:16:15;-0.16;92.09
65460;DHT22;52058;49.822;6.754;2023-03-12T00:18:42;-0.13;92.00
65460;DHT22;52058;49.822;6.754;2023-03-12T00:21:09;-0.10;92.51
65460;DHT22;52058;49.822;6.754;2023-03-12T00:23:36;-0.15;92.45
65460;DHT22;52058;49.822;6.754;2023-03-12T00:26:05;-0.12;92.23
65460;DHT22;52058;49.822;6.754;2023-03-12T00:28:33;-0.03;91.97
65460;DHT22;52058;49.822;6.754;2023-03-12T00:31:00;-0.01;92.09
65460;DHT22;52058;49.822;6.754;2023-03-12T00:33:27;0.05;92.04
65460;DHT22;52058;49.822;6.754;2023-03-12T00:35:55;0.08;91.64
65460;DHT22;52058;49.822;6.754;2023-03-12T00:38:22;0.19;91.26
65460;DHT22;52058;49.822;6.754;2023-03-12T00:40:48;0.18;91.16
65460;DHT22;52058;49.822;6.754;2023-03-12T00:43:16;0.25;91.12
65460;DHT22;52058;49.822;6.754;2023-03-12T00:45:43;0.32;91.02
65460;DHT22;52058;49.822;6.754;2023-03-12T00:48:10;0.41;90.99
65460;DHT22;52058;49.822;6.754;2023-03-12T00:50:36;0.46;91.04
65460;DHT22;52058;49.822;6.754;2023-03-12T00:53:03;0.49;90.52
65460;DHT22;52058;49.822;6.754;2023-03-12T00:55:29;0.56;89.85
65460;DHT22;52058;49.822;6.754;2023-03-12T00:57:56;0.56;89.98
65460;DHT22;52058;49.822;6.754;2023-03-12T01:00:24;0.62;90.54
65460;DHT22;52058;49.822;6.754;2023-03-12T01:02:50;0.67;90.46
65460;DHT22;52058;49.822;6.754;2023-03-12T01:05:17;0.67;90.51
65460;DHT22;52058;49.822;6.754;2023-03-12T01:07:43;0.74;89.57
65460;DHT22;52058;49.822;6.754;2023-03-12T01:10:12;0.77;89.13
65460;DHT22;52058;49.822;6.754;2023-03-12T01:12:39;0.83;88.80
65460;DHT22;52058;49.822;6.754;2023-03-12T01:15:07;0.91;87.49
65460;DHT22;52058;49.822;6.754;2023-03-12T01:17:35;0.93;88.42
65460;DHT22;52058;49.822;6.754;2023-03-12T01:20:02;0.94;88.97
65460;DHT22;52058;49.822;6.754;2023-03-12T01:22:30;0.88;88.73
65460;DHT22;52058;49.822;6.754;2023-03-12T01:24:57;0.85;88.32
65460;DHT22;52058;49.822;6.754;2023-03-12T01:27:23;0.84;88.63
65460;DHT22;52058;49.822;6.754;2023-03-12T01:29:50;0.85;88.55
65460;DHT22;52058;49.822;6.754;2023-03-12T01:32:16;0.84;88.14
65460;DHT22;52058;49.822;6.754;2023-03-12T01:34:44;0.94;87.54
65460;DHT22;52058;49.822;6.754;2023-03-12T01:37:11;1.00;87.59
65460;DHT22;52058;49.822;6.754;2023-03-12T01:39:37;1.02;88.20
65460;DHT22;52058;49.822;6.754;2023-03-12T01:42:04;1.05;88.29
65460;DHT22;52058;49.822;6.754;2023-03-12T01:44:49;1.07;88.70
65460;DHT22;52058;49.822;6.754;2023-03-12T01:47:16;1.09;88.12
65460;DHT22;52058;49.822;6.754;2023-03-12T01:49:44;1.15;88.31
65460;DHT22;52058;49.822;6.754;2023-03-12T01:52:13;1.21;87.53
65460;DHT22;52058;49.822;6.754;2023-03-12T01:54:42;1.21;87.12
65460;DHT22;52058;49.822;6.754;2023-03-12T01:57:13;1.27;87.60
65460;DHT22;52058;49.822;6.754;2023-03-12T01:59:44;1.20;87.96
65460;DHT22;52058;49.822;6.754;2023-03-12T02:02:13;1.08;88.65
65460;DHT22;52058;49.822;6.754;2023-03-12T02:04:41;1.12;88.76
65460;DHT22;52058;49.822;6.754;2023-03-12T02:07:11;1.17;87.84
65460;DHT22;52058;49.822;6.754;2023-03-12T02:09:40;1.21;87.71
65460;DHT22;52058;49.822;6.754;2023-03-12T02:12:08;1.18;87.99
65460;DHT22;52058;49.822;6.754;2023-03-12T02:14:35;1.24;88.27
65460;DHT22;52058;49.822;6.754;2023-03-12T02:17:02;1.25;87.85
65460;DHT22;52058;49.822;6.754;2023-03-12T02:19:33;1.29;87.93
65460;DHT22;52058;49.822;6.754;2023-03-12T02:22:03;1.28;87.89
65460;DHT22;52058;49.822;6.754;2023-03-12T02:24:35;1.32;87.82
65460;DHT22;52058;49.822;6.754;2023-03-12T02:27:05;1.31;87.75
65460;DHT22;52058;49.822;6.754;2023-03-12T02:29:34;1.32;87.10
65460;DHT22;52058;49.822;6.754;2023-03-12T02:32:02;1.45;86.60
65460;DHT22;52058;49.822;6.754;2023-03-12T02:34:30;1.42;87.09
65460;DHT22;52058;49.822;6.754;2023-03-12T02:36:57;1.46;87.50
65460;DHT22;52058;49.822;6.754;2023-03-12T02:39:23;1.42;87.36
65460;DHT22;52058;49.822;6.754;2023-03-12T02:41:52;1.41;87.21
65460;DHT22;52058;49.822;6.754;2023-03-12T02:44:23;1.42;87.28
65460;DHT22;52058;49.822;6.754;2023-03-12T02:46:53;1.41;87.46
65460;DHT22;52058;49.822;6.754;2023-03-12T02:49:22;1.43;87.46
65460;DHT22;52058;49.822;6.754;2023-03-12T02:51:49;1.35;87.49
65460;DHT22;52058;49.822;6.754;2023-03-12T02:54:17;1.29;87.67
65460;DHT22;52058;49.822;6.754;2023-03-12T02:56:44;1.35;87.40
65460;DHT22;52058;49.822;6.754;2023-03-12T02:59:11;1.42;87.33
65460;DHT22;52058;49.822;6.754;2023-03-12T03:01:40;1.41;87.39
65460;DHT22;52058;49.822;6.754;2023-03-12T03:04:08;1.36;87.78
65460;DHT22;52058;49.822;6.754;2023-03-12T03:06:36;1.38;88.14
65460;DHT22;52058;49.822;6.754;2023-03-12T03:09:04;1.29;88.45
65460;DHT22;52058;49.822;6.754;2023-03-12T03:11:30;1.31;89.21
65460;DHT22;52058;49.822;6.754;2023-03-12T03:13:57;1.27;88.57
65460;DHT22;52058;49.822;6.754;2023-03-12T03:16:24;1.25;88.56
65460;DHT22;52058;49.822;6.754;2023-03-12T03:18:52;1.22;87.91
65460;DHT22;52058;49.822;6.754;2023-03-12T03:21:19;1.28;88.79
65460;DHT22;52058;49.822;6.754;2023-03-12T03:23:47;1.32;89.45
65460;DHT22;52058;49.822;6.754;2023-03-12T03:26:15;1.35;90.08
65460;DHT22;52058;49.822;6.754;2023-03-12T03:28:43;1.36;90.49
65460;DHT22;52058;49.822;6.754;2023-03-12T03:31:10;1.42;90.12
65460;DHT22;52058;49.822;6.754;2023-03-12T03:33:37;1.32;90.29
65460;DHT22;52058;49.822;6.754;2023-03-12T03:36:07;1.41;90.38
65460;DHT22;52058;49.822;6.754;2023-03-12T03:38:34;1.45;90.68
65460;DHT22;52058;49.822;6.754;2023-03-12T03:41:01;1.43;91.12
65460;DHT22;52058;49.822;6.754;2023-03-12T03:43:28;1.43;91.20
65460;DHT22;52058;49.822;6.754;2023-03-12T03:45:58;1.42;91.06
65460;DHT22;52058;49.822;6.754;2023-03-12T03:48:25;1.35;91.18
65460;DHT22;52058;49.822;6.754;2023-03-12T03:50:52;1.35;91.16
65460;DHT22;52058;49.822;6.754;2023-03-12T03:53:20;1.34;91.25
65460;DHT22;52058;49.822;6.754;2023-03-12T03:55:46;1.25;91.12
65460;DHT22;52058;49.822;6.754;2023-03-12T03:58:13;1.25;91.67
65460;DHT22;52058;49.822;6.754;2023-03-12T04:00:39;1.28;93.11
65460;DHT22;52058;49.822;6.754;2023-03-12T04:03:08;1.24;93.05
65460;DHT22;52058;49.822;6.754;2023-03-12T04:05:35;1.12;93.20
65460;DHT22;52058;49.822;6.754;2023-03-12T04:08:02;1.27;92.66
65460;DHT22;52058;49.822;6.754;2023-03-12T04:10:30;1.25;91.59
65460;DHT22;52058;49.822;6.754;2023-03-12T04:12:57;1.25;91.93
65460;DHT22;52058;49.822;6.754;2023-03-12T04:15:23;1.34;91.45
65460;DHT22;52058;49.822;6.754;2023-03-12T04:17:50;1.25;91.83
65460;DHT22;52058;49.822;6.754;2023-03-12T04:20:16;1.25;91.61
65460;DHT22;52058;49.822;6.754;2023-03-12T04:22:43;1.28;92.45
65460;DHT22;52058;49.822;6.754;2023-03-12T04:25:09;1.27;92.52
65460;DHT22;52058;49.822;6.754;2023-03-12T04:27:37;1.31;92.11
65460;DHT22;52058;49.822;6.754;2023-03-12T04:30:04;1.29;92.70
65460;DHT22;52058;49.822;6.754;2023-03-12T04:32:31;1.32;92.65
65460;DHT22;52058;49.822;6.754;2023-03-12T04:34:58;1.31;92.43
65460;DHT22;52058;49.822;6.754;2023-03-12T04:37:24;1.28;91.98
65460;DHT22;52058;49.822;6.754;2023-03-12T04:39:51;1.32;91.89
65460;DHT22;52058;49.822;6.754;2023-03-12T04:42:17;1.32;92.33
65460;DHT22;52058;49.822;6.754;2023-03-12T04:44:45;1.32;92.44
65460;DHT22;52058;49.822;6.754;2023-03-12T04:47:11;1.36;93.46
65460;DHT22;52058;49.822;6.754;2023-03-12T04:49:38;1.41;93.53
65460;DHT22;52058;49.822;6.754;2023-03-12T04:52:05;1.36;93.17
65460;DHT22;52058;49.822;6.754;2023-03-12T04:54:32;1.38;93.15
65460;DHT22;52058;49.822;6.754;2023-03-12T04:56:58;1.42;92.35
65460;DHT22;52058;49.822;6.754;2023-03-12T04:59:25;1.43;93.04
65460;DHT22;52058;49.822;6.754;2023-03-12T05:01:53;1.52;92.99
65460;DHT22;52058;49.822;6.754;2023-03-12T05:04:19;1.53;92.52
65460;DHT22;52058;49.822;6.754;2023-03-12T05:06:46;1.59;92.71
65460;DHT22;52058;49.822;6.754;2023-03-12T05:09:12;1.52;92.78
65460;DHT22;52058;49.822;6.754;2023-03-12T05:11:39;1.48;93.38
65460;DHT22;52058;49.822;6.754;2023-03-12T05:14:05;1.48;93.05
65460;DHT22;52058;49.822;6.754;2023-03-12T05:16:32;1.53;93.40
65460;DHT22;52058;49.822;6.754;2023-03-12T05:19:00;1.52;92.72
65460;DHT22;52058;49.822;6.754;2023-03-12T05:21:27;1.53;92.68
65460;DHT22;52058;49.822;6.754;2023-03-12T05:23:53;1.55;93.69
65460;DHT22;52058;49.822;6.754;2023-03-12T05:26:21;1.51;93.15
65460;DHT22;52058;49.822;6.754;2023-03-12T05:28:48;1.60;92.82
65460;DHT22;52058;49.822;6.754;2023-03-12T05:31:15;1.51;93.23
65460;DHT22;52058;49.822;6.754;2023-03-12T05:33:42;1.52;93.26
65460;DHT22;52058;49.822;6.754;2023-03-12T05:36:11;1.46;93.93
65460;DHT22;52058;49.822;6.754;2023-03-12T05:38:37;1.55;94.08
65460;DHT22;52058;49.822;6.754;2023-03-12T05:41:05;1.48;93.76
65460;DHT22;52058;49.822;6.754;2023-03-12T05:43:32;1.56;93.75
65460;DHT22;52058;49.822;6.754;2023-03-12T05:45:59;1.53;94.39
65460;DHT22;52058;49.822;6.754;2023-03-12T05:48:26;1.56;95.03
65460;DHT22;52058;49.822;6.754;2023-03-12T05:50:53;1.56;94.46
65460;DHT22;52058;49.822;6.754;2023-03-12T05:53:21;1.59;93.80
65460;DHT22;52058;49.822;6.754;2023-03-12T05:55:47;1.66;93.71
65460;DHT22;52058;49.822;6.754;2023-03-12T05:58:14;1.60;93.84
65460;DHT22;52058;49.822;6.754;2023-03-12T06:00:41;1.60;93.82
65460;DHT22;52058;49.822;6.754;2023-03-12T06:03:09;1.66;95.41
65460;DHT22;52058;49.822;6.754;2023-03-12T06:05:36;1.72;95.15
65460;DHT22;52058;49.822;6.754;2023-03-12T06:08:03;1.72;95.52
65460;DHT22;52058;49.822;6.754;2023-03-12T06:10:31;1.73;94.82
65460;DHT22;52058;49.822;6.754;2023-03-12T06:12:57;1.69;95.18
65460;DHT22;52058;49.822;6.754;2023-03-12T06:15:24;1.73;95.50
65460;DHT22;52058;49.822;6.754;2023-03-12T06:17:51;1.76;95.39
65460;DHT22;52058;49.822;6.754;2023-03-12T06:20:17;1.81;95.52
65460;DHT22;52058;49.822;6.754;2023-03-12T06:22:44;1.87;95.97
65460;DHT22;52058;49.822;6.754;2023-03-12T06:25:11;1.86;94.55
65460;DHT22;52058;49.822;6.754;2023-03-12T06:27:39;1.99;94.95
65460;DHT22;52058;49.822;6.754;2023-03-12T06:30:06;2.07;94.91
65460;DHT22;52058;49.822;6.754;2023-03-12T06:32:33;1.96;94.10
65460;DHT22;52058;49.822;6.754;2023-03-12T06:35:00;1.79;95.11
65460;DHT22;52058;49.822;6.754;2023-03-12T06:37:29;1.80;95.68
65460;DHT22;52058;49.822;6.754;2023-03-12T06:39:55;1.83;95.39
65460;DHT22;52058;49.822;6.754;2023-03-12T06:42:22;1.76;94.92
65460;DHT22;52058;49.822;6.754;2023-03-12T06:44:52;1.74;95.06
65460;DHT22;52058;49.822;6.754;2023-03-12T06:47:18;1.84;95.52
65460;DHT22;52058;49.822;6.754;2023-03-12T06:49:45;1.93;95.92
65460;DHT22;52058;49.822;6.754;2023-03-12T06:52:11;1.90;95.43
65460;DHT22;52058;49.822;6.754;2023-03-12T06:54:38;2.09;95.59
65460;DHT22;52058;49.822;6.754;2023-03-12T06:57:04;2.15;95.46
65460;DHT22;52058;49.822;6.754;2023-03-12T06:59:31;2.20;94.73
65460;DHT22;52058;49.822;6.754;2023-03-12T07:01:59;2.10;95.04
65460;DHT22;52058;49.822;6.754;2023-03-12T07:04:26;2.18;95.37
65460;DHT22;52058;49.822;6.754;2023-03-12T07:06:52;2.13;95.35
65460;DHT22;52058;49.822;6.754;2023-03-12T07:09:19;2.17;96.33
65460;DHT22;52058;49.822;6.754;2023-03-12T07:11:46;2.27;95.96
65460;DHT22;52058;49.822;6.754;2023-03-12T07:14:12;2.32;95.81
65460;DHT22;52058;49.822;6.754;2023-03-12T07:16:39;2.34;95.61
65460;DHT22;52058;49.822;6.754;2023-03-12T07:19:07;2.41;95.64
65460;DHT22;52058;49.822;6.754;2023-03-12T07:21:33;2.44;95.43
65460;DHT22;52058;49.822;6.754;2023-03-12T07:24:00;2.51;95.93
65460;DHT22;52058;49.822;6.754;2023-03-12T07:26:31;2.53;95.61
65460;DHT22;52058;49.822;6.754;2023-03-12T07:28:58;2.59;95.26
65460;DHT22;52058;49.822;6.754;2023-03-12T07:31:24;2.69;95.38
65460;DHT22;52058;49.822;6.754;2023-03-12T07:33:51;2.83;95.13
65460;DHT22;52058;49.822;6.754;2023-03-12T07:36:18;2.83;95.33
65460;DHT22;52058;49.822;6.754;2023-03-12T07:38:45;2.88;94.40
65460;DHT22;52058;49.822;6.754;2023-03-12T07:41:11;2.86;94.62
65460;DHT22;52058;49.822;6.754;2023-03-12T07:43:38;2.88;95.50
65460;DHT22;52058;49.822;6.754;2023-03-12T07:46:04;3.00;95.43
65460;DHT22;52058;49.822;6.754;2023-03-12T07:48:31;3.24;94.68
65460;DHT22;52058;49.822;6.754;2023-03-12T07:50:57;3.40;94.19
65460;DHT22;52058;49.822;6.754;2023-03-12T07:53:25;3.41;93.48
65460;DHT22;52058;49.822;6.754;2023-03-12T07:55:53;3.26;93.75
65460;DHT22;52058;49.822;6.754;2023-03-12T07:58:20;3.16;94.33
65460;DHT22;52058;49.822;6.754;2023-03-12T08:00:46;3.30;94.74
65460;DHT22;52058;49.822;6.754;2023-03-12T08:03:13;3.42;94.22
65460;DHT22;52058;49.822;6.754;2023-03-12T08:05:39;3.44;94.17
65460;DHT22;52058;49.822;6.754;2023-03-12T08:08:06;3.51;94.06
65460;DHT22;52058;49.822;6.754;2023-03-12T08:10:35;3.61;93.27
65460;DHT22;52058;49.822;6.754;2023-03-12T08:13:01;3.58;93.53
65460;DHT22;52058;49.822;6.754;2023-03-12T08:15:28;3.72;93.07
65460;DHT22;52058;49.822;6.754;2023-03-12T08:17:54;3.83;93.02
65460;DHT22;52058;49.822;6.754;2023-03-12T08:20:21;3.90;92.81
65460;DHT22;52058;49.822;6.754;2023-03-12T08:22:47;3.93;92.64
65460;DHT22;52058;49.822;6.754;2023-03-12T08:25:14;3.92;92.63
65460;DHT22;52058;49.822;6.754;2023-03-12T08:27:44;3.98;92.86
65460;DHT22;52058;49.822;6.754;2023-03-12T08:30:11;4.02;93.09
65460;DHT22;52058;49.822;6.754;2023-03-12T08:32:38;4.09;92.83
65460;DHT22;52058;49.822;6.754;2023-03-12T08:35:05;4.17;93.64
65460;DHT22;52058;49.822;6.754;2023-03-12T08:37:31;4.11;93.92
65460;DHT22;52058;49.822;6.754;2023-03-12T08:39:58;4.26;93.72
65460;DHT22;52058;49.822;6.754;2023-03-12T08:42:25;4.20;94.50
65460;DHT22;52058;49.822;6.754;2023-03-12T08:44:53;4.13;93.88
65460;DHT22;52058;49.822;6.754;2023-03-12T08:47:19;4.34;94.18
65460;DHT22;52058;49.822;6.754;2023-03-12T08:49:46;4.43;93.59
65460;DHT22;52058;49.822;6.754;2023-03-12T08:52:12;4.51;93.84
65460;DHT22;52058;49.822;6.754;2023-03-12T08:54:39;4.60;92.76
65460;DHT22;52058;49.822;6.754;2023-03-12T08:57:05;4.69;93.25
65460;DHT22;52058;49.822;6.754;2023-03-12T08:59:31;4.87;92.54
65460;DHT22;52058;49.822;6.754;2023-03-12T09:02:00;4.87;93.22
65460;DHT22;52058;49.822;6.754;2023-03-12T09:04:26;5.00;92.02
65460;DHT22;52058;49.822;6.754;2023-03-12T09:06:53;5.09;92.94
65460;DHT22;52058;49.822;6.754;2023-03-12T09:09:19;5.27;92.22
65460;DHT22;52058;49.822;6.754;2023-03-12T09:11:46;5.40;91.46
65460;DHT22;52058;49.822;6.754;2023-03-12T09:14:12;5.67;91.13
65460;DHT22;52058;49.822;6.754;2023-03-12T09:16:39;5.78;91.49
65460;DHT22;52058;49.822;6.754;2023-03-12T09:19:06;6.11;90.30
65460;DHT22;52058;49.822;6.754;2023-03-12T09:21:33;6.28;89.74
65460;DHT22;52058;49.822;6.754;2023-03-12T09:23:59;6.28;89.66
65460;DHT22;52058;49.822;6.754;2023-03-12T09:26:26;6.19;90.25
65460;DHT22;52058;49.822;6.754;2023-03-12T09:28:52;6.32;90.38
65460;DHT22;52058;49.822;6.754;2023-03-12T09:31:19;6.54;88.55
65460;DHT22;52058;49.822;6.754;2023-03-12T09:33:45;6.52;88.06
65460;DHT22;52058;49.822;6.754;2023-03-12T09:36:13;6.63;89.18
65460;DHT22;52058;49.822;6.754;2023-03-12T09:38:40;6.74;89.33
65460;DHT22;52058;49.822;6.754;2023-03-12T09:41:15;6.56;89.05
65460;DHT22;52058;49.822;6.754;2023-03-12T09:43:48;6.43;90.70
65460;DHT22;52058;49.822;6.754;2023-03-12T09:46:20;6.73;90.42
65460;DHT22;52058;49.822;6.754;2023-03-12T09:48:49;7.05;89.49
65460;DHT22;52058;49.822;6.754;2023-03-12T09:51:22;7.12;89.70
65460;DHT22;52058;49.822;6.754;2023-03-12T09:53:51;7.11;89.52
65460;DHT22;52058;49.822;6.754;2023-03-12T09:56:20;7.38;89.35
65460;DHT22;52058;49.822;6.754;2023-03-12T09:58:47;8.07;87.57
65460;DHT22;52058;49.822;6.754;2023-03-12T10:01:26;8.25;87.25
65460;DHT22;52058;49.822;6.754;2023-03-12T10:04:04;8.37;86.52
65460;DHT22;52058;49.822;6.754;2023-03-12T10:06:36;8.61;86.37
65460;DHT22;52058;49.822;6.754;2023-03-12T10:09:06;8.76;85.69
65460;DHT22;52058;49.822;6.754;2023-03-12T10:11:43;8.87;86.57
65460;DHT22;52058;49.822;6.754;2023-03-12T10:14:25;8.82;86.50
65460;DHT22;52058;49.822;6.754;2023-03-12T10:17:05;8.75;86.92
65460;DHT22;52058;49.822;6.754;2023-03-12T10:19:44;8.62;88.29
65460;DHT22;52058;49.822;6.754;2023-03-12T10:22:24;8.86;88.20
65460;DHT22;52058;49.822;6.754;2023-03-12T10:25:06;8.93;87.64
65460;DHT22;52058;49.822;6.754;2023-03-12T10:27:40;9.30;87.47
65460;DHT22;52058;49.822;6.754;2023-03-12T10:30:14;9.71;86.76
65460;DHT22;52058;49.822;6.754;2023-03-12T10:32:45;10.19;84.90
65460;DHT22;52058;49.822;6.754;2023-03-12T10:35:16;10.13;85.23
65460;DHT22;52058;49.822;6.754;2023-03-12T10:37:46;10.16;86.14
65460;DHT22;52058;49.822;6.754;2023-03-12T10:40:15;10.24;85.11
65460;DHT22;52058;49.822;6.754;2023-03-12T10:42:42;10.63;85.56
65460;DHT22;52058;49.822;6.754;2023-03-12T10:45:18;10.74;84.68
65460;DHT22;52058;49.822;6.754;2023-03-12T10:47:49;10.29;85.40
65460;DHT22;52058;49.822;6.754;2023-03-12T10:50:22;10.29;86.24
65460;DHT22;52058;49.822;6.754;2023-03-12T10:52:52;9.96;87.00
65460;DHT22;52058;49.822;6.754;2023-03-12T10:55:21;9.78;88.20
65460;DHT22;52058;49.822;6.754;2023-03-12T10:57:48;9.93;87.99
65460;DHT22;52058;49.822;6.754;2023-03-12T11:00:20;10.05;87.41
65460;DHT22;52058;49.822;6.754;2023-03-12T11:02:55;10.00;87.91
65460;DHT22;52058;49.822;6.754;2023-03-12T11:05:24;10.16;87.66
65460;DHT22;52058;49.822;6.754;2023-03-12T11:07:52;10.32;87.55
65460;DHT22;52058;49.822;6.754;2023-03-12T11:10:23;10.39;87.41
65460;DHT22;52058;49.822;6.754;2023-03-12T11:12:59;10.72;86.54
65460;DHT22;52058;49.822;6.754;2023-03-12T11:15:28;11.04;85.48
65460;DHT22;52058;49.822;6.754;2023-03-12T11:18:19;11.19;85.07
65460;DHT22;52058;49.822;6.754;2023-03-12T11:20:46;11.36;84.65
65460;DHT22;52058;49.822;6.754;2023-03-12T11:23:16;11.50;84.02
65460;DHT22;52058;49.822;6.754;2023-03-12T11:25:50;11.55;84.03
65460;DHT22;52058;49.822;6.754;2023-03-12T11:28:22;11.76;83.16
65460;DHT22;52058;49.822;6.754;2023-03-12T11:30:51;11.86;83.81
65460;DHT22;52058;49.822;6.754;2023-03-12T11:33:18;12.24;83.00
65460;DHT22;52058;49.822;6.754;2023-03-12T11:35:51;12.25;82.44
65460;DHT22;52058;49.822;6.754;2023-03-12T11:38:28;12.18;82.69
65460;DHT22;52058;49.822;6.754;2023-03-12T11:41:02;12.11;82.54
65460;DHT22;52058;49.822;6.754;2023-03-12T11:43:48;12.17;81.81
65460;DHT22;52058;49.822;6.754;2023-03-12T11:46:26;12.28;81.29
65460;DHT22;52058;49.822;6.754;2023-03-12T11:49:08;12.29;81.71
65460;DHT22;52058;49.822;6.754;2023-03-12T11:51:43;12.56;80.69
65460;DHT22;52058;49.822;6.754;2023-03-12T11:54:37;12.57;80.74
65460;DHT22;52058;49.822;6.754;2023-03-12T11:57:13;12.72;80.47
65460;DHT22;52058;49.822;6.754;2023-03-12T11:59:53;12.99;79.13
65460;DHT22;52058;49.822;6.754;2023-03-12T12:05:20;13.44;77.14
65460;DHT22;52058;49.822;6.754;2023-03-12T12:07:58;13.25;78.27
65460;DHT22;52058;49.822;6.754;2023-03-12T12:10:36;13.30;77.79
65460;DHT22;52058;49.822;6.754;2023-03-12T12:13:10;13.51;77.37
65460;DHT22;52058;49.822;6.754;2023-03-12T12:15:45;13.17;77.45
65460;DHT22;52058;49.822;6.754;2023-03-12T12:18:38;13.55;76.96
65460;DHT22;52058;49.822;6.754;2023-03-12T12:21:20;13.98;76.35
65460;DHT22;52058;49.822;6.754;2023-03-12T12:23:54;13.82;76.40
65460;DHT22;52058;49.822;6.754;2023-03-12T12:26:32;13.90;75.43
65460;DHT22;52058;49.822;6.754;2023-03-12T12:29:23;13.62;75.36
65460;DHT22;52058;49.822;6.754;2023-03-12T12:31:54;13.35;75.63
65460;DHT22;52058;49.822;6.754;2023-03-12T12:37:32;13.40;75.53
65460;DHT22;52058;49.822;6.754;2023-03-12T12:40:09;13.18;75.97
65460;DHT22;52058;49.822;6.754;2023-03-12T12:42:49;13.38;76.57
65460;DHT22;52058;49.822;6.754;2023-03-12T12:45:18;13.25;75.59
65460;DHT22;52058;49.822;6.754;2023-03-12T12:47:48;13.00;76.10
65460;DHT22;52058;49.822;6.754;2023-03-12T12:50:18;13.15;76.67
65460;DHT22;52058;49.822;6.754;2023-03-12T12:52:51;13.08;76.06
65460;DHT22;52058;49.822;6.754;2023-03-12T12:55:21;13.03;75.80
65460;DHT22;52058;49.822;6.754;2023-03-12T12:57:55;13.18;75.93
65460;DHT22;52058;49.822;6.754;2023-03-12T13:00:37;13.55;74.66
65460;DHT22;52058;49.822;6.754;2023-03-12T13:03:05;14.16;73.16
65460;DHT22;52058;49.822;6.754;2023-03-12T13:05:43;13.66;73.44
65460;DHT22;52058;49.822;6.754;2023-03-12T13:08:32;13.24;74.41
65460;DHT22;52058;49.822;6.754;2023-03-12T13:11:03;13.13;75.12
65460;DHT22;52058;49.822;6.754;2023-03-12T13:13:30;12.99;76.04
65460;DHT22;52058;49.822;6.754;2023-03-12T13:16:18;12.77;76.41
65460;DHT22;52058;49.822;6.754;2023-03-12T13:18:55;12.90;76.97
65460;DHT22;52058;49.822;6.754;2023-03-12T13:21:25;12.93;76.68
65460;DHT22;52058;49.822;6.754;2023-03-12T13:24:04;12.92;77.62
65460;DHT22;52058;49.822;6.754;2023-03-12T13:26:44;12.65;77.90
65460;DHT22;52058;49.822;6.754;2023-03-12T13:29:21;12.92;78.11
65460;DHT22;52058;49.822;6.754;2023-03-12T13:31:47;13.40;76.01
65460;DHT22;52058;49.822;6.754;2023-03-12T13:34:30;14.82;72.30
65460;DHT22;52058;49.822;6.754;2023-03-12T13:36:59;15.18;71.21
65460;DHT22;52058;49.822;6.754;2023-03-12T13:39:30;14.50;70.78
65460;DHT22;52058;49.822;6.754;2023-03-12T13:41:58;14.91;70.25
65460;DHT22;52058;49.822;6.754;2023-03-12T13:44:31;14.88;69.20
65460;DHT22;52058;49.822;6.754;2023-03-12T13:47:03;15.25;68.46
65460;DHT22;52058;49.822;6.754;2023-03-12T13:49:37;14.50;70.27
65460;DHT22;52058;49.822;6.754;2023-03-12T13:52:18;14.20;71.32
65460;DHT22;52058;49.822;6.754;2023-03-12T13:54:49;13.82;72.21
65460;DHT22;52058;49.822;6.754;2023-03-12T13:57:29;13.59;73.21
65460;DHT22;52058;49.822;6.754;2023-03-12T13:59:57;13.32;73.88
65460;DHT22;52058;49.822;6.754;2023-03-12T14:02:26;13.32;74.56
65460;DHT22;52058;49.822;6.754;2023-03-12T14:05:01;13.40;74.32
65460;DHT22;52058;49.822;6.754;2023-03-12T14:07:52;13.44;72.50
65460;DHT22;52058;49.822;6.754;2023-03-12T14:10:33;13.68;72.57
65460;DHT22;52058;49.822;6.754;2023-03-12T14:13:16;13.81;70.11
65460;DHT22;52058;49.822;6.754;2023-03-12T14:15:52;13.96;69.77
65460;DHT22;52058;49.822;6.754;2023-03-12T14:18:25;13.85;69.67
65460;DHT22;52058;49.822;6.754;2023-03-12T14:20:55;14.05;69.68
65460;DHT22;52058;49.822;6.754;2023-03-12T14:23:26;13.92;69.48
65460;DHT22;52058;49.822;6.754;2023-03-12T14:25:57;14.09;70.13
65460;DHT22;52058;49.822;6.754;2023-03-12T14:28:26;13.63;70.30
65460;DHT22;52058;49.822;6.754;2023-03-12T14:30:57;13.69;71.10
65460;DHT22;52058;49.822;6.754;2023-03-12T14:33:26;13.55;71.03
65460;DHT22;52058;49.822;6.754;2023-03-12T14:36:00;13.59;71.06
65460;DHT22;52058;49.822;6.754;2023-03-12T14:38:30;13.55;71.65
65460;DHT22;52058;49.822;6.754;2023-03-12T14:41:03;13.54;70.40
65460;DHT22;52058;49.822;6.754;2023-03-12T14:43:31;13.69;70.30
65460;DHT22;52058;49.822;6.754;2023-03-12T14:46:00;13.83;69.71
65460;DHT22;52058;49.822;6.754;2023-03-12T14:48:28;13.66;70.73
65460;DHT22;52058;49.822;6.754;2023-03-12T14:50:56;13.78;70.56
65460;DHT22;52058;49.822;6.754;2023-03-12T14:53:25;13.75;70.73
65460;DHT22;52058;49.822;6.754;2023-03-12T14:56:03;13.82;71.88
65460;DHT22;52058;49.822;6.754;2023-03-12T14:58:30;13.48;71.82
65460;DHT22;52058;49.822;6.754;2023-03-12T15:00:59;13.35;72.98
65460;DHT22;52058;49.822;6.754;2023-03-12T15:03:27;13.58;73.05
65460;DHT22;52058;49.822;6.754;2023-03-12T15:05:54;13.45;72.69
65460;DHT22;52058;49.822;6.754;2023-03-12T15:08:21;13.32;73.08
65460;DHT22;52058;49.822;6.754;2023-03-12T15:10:53;13.31;72.73
65460;DHT22;52058;49.822;6.754;2023-03-12T15:13:23;13.24;72.57
65460;DHT22;52058;49.822;6.754;2023-03-12T15:15:52;13.13;73.44
65460;DHT22;52058;49.822;6.754;2023-03-12T15:18:22;13.04;73.61
65460;DHT22;52058;49.822;6.754;2023-03-12T15:20:50;12.83;73.73
65460;DHT22;52058;49.822;6.754;2023-03-12T15:23:18;12.77;74.11
65460;DHT22;52058;49.822;6.754;2023-03-12T15:25:46;12.69;73.89
65460;DHT22;52058;49.822;6.754;2023-03-12T15:28:26;12.53;73.57
65460;DHT22;52058;49.822;6.754;2023-03-12T15:31:11;12.59;74.23
65460;DHT22;52058;49.822;6.754;2023-03-12T15:33:39;12.42;73.88
65460;DHT22;52058;49.822;6.754;2023-03-12T15:36:19;12.41;73.89
65460;DHT22;52058;49.822;6.754;2023-03-12T15:38:50;12.48;73.51
65460;DHT22;52058;49.822;6.754;2023-03-12T15:41:20;12.55;73.52
65460;DHT22;52058;49.822;6.754;2023-03-12T15:43:51;12.60;73.39
65460;DHT22;52058;49.822;6.754;2023-03-12T15:46:19;12.52;74.00
65460;DHT22;52058;49.822;6.754;2023-03-12T15:48:47;12.46;74.25
65460;DHT22;52058;49.822;6.754;2023-03-12T15:51:26;12.31;74.43
65460;DHT22;52058;49.822;6.754;2023-03-12T15:53:58;12.42;74.18
65460;DHT22;52058;49.822;6.754;2023-03-12T15:56:31;12.41;74.03
65460;DHT22;52058;49.822;6.754;2023-03-12T15:59:03;12.29;74.33
65460;DHT22;52058;49.822;6.754;2023-03-12T16:01:44;12.32;74.61